sensor_id;sensor_type;location;lat;lon;timestamp;temperature;humidity
26503;DHT22;14177;51.520;6.764;2023-05-08T00:01:29;15.70;99.90
26503;DHT22;14177;51.520;6.764;2023-05-08T00:03:56;15.70;99.90
26503;DHT22;14177;51.520;6.764;2023-05-08T00:06:24;15.70;99.90
26503;DHT22;14177;51.520;6.764;2023-05-08T00:08:54;15.70;99.90
26503;DHT22;14177;51.520;6.764;2023-05-08T00:11:21;15.60;99.90
26503;DHT22;14177;51.520;6.764;2023-05-08T00:13:48;15.60;99.90
26503;DHT22;14177;51.520;6.764;2023-05-08T00:16:15;15.60;99.90
26503;DHT22;14177;51.520;6.764;2023-05-08T00:18:42;15.60;99.90
26503;DHT22;14177;51.520;6.764;2023-05-08T00:21:09;15.60;99.90
26503;DHT22;14177;51.520;6.764;2023-05-08T00:23:36;15.60;99.90
26503;DHT22;14177;51.520;6.764;2023-05-08T00:26:03;15.60;99.90
26503;DHT22;14177;51.520;6.764;2023-05-08T00:28:30;15.50;99.90
26503;DHT22;14177;51.520;6.764;2023-05-08T00:30:59;15.50;99.90
26503;DHT22;14177;51.520;6.764;2023-05-08T00:33:27;15.50;99.90
26503;DHT22;14177;51.520;6.764;2023-05-08T00:36:01;15.50;99.90
26503;DHT22;14177;51.520;6.764;2023-05-08T00:38:30;15.50;99.90
26503;DHT22;14177;51.520;6.764;2023-05-08T00:41:01;15.40;99.90
26503;DHT22;14177;51.520;6.764;2023-05-08T00:43:28;15.40;99.90
26503;DHT22;14177;51.520;6.764;2023-05-08T00:45:57;15.40;99.90
26503;DHT22;14177;51.520;6.764;2023-05-08T00:48:29;15.40;99.90
26503;DHT22;14177;51.520;6.764;2023-05-08T00:50:58;15.40;99.90
26503;DHT22;14177;51.520;6.764;2023-05-08T00:53:27;15.40;99.90
26503;DHT22;14177;51.520;6.764;2023-05-08T00:55:56;15.40;99.90
26503;DHT22;14177;51.520;6.764;2023-05-08T00:58:25;15.40;99.90
26503;DHT22;14177;51.520;6.764;2023-05-08T01:00:55;15.30;99.90
26503;DHT22;14177;51.520;6.764;2023-05-08T01:03:23;15.30;99.90
26503;DHT22;14177;51.520;6.764;2023-05-08T01:05:51;15.30;99.90
26503;DHT22;14177;51.520;6.764;2023-05-08T01:08:18;15.30;99.90
26503;DHT22;14177;51.520;6.764;2023-05-08T01:11:17;15.30;99.90
26503;DHT22;14177;51.520;6.764;2023-05-08T01:14:19;15.30;99.90
26503;DHT22;14177;51.520;6.764;2023-05-08T01:17:10;15.20;99.90
26503;DHT22;14177;51.520;6.764;2023-05-08T01:20:07;15.30;99.90
26503;DHT22;14177;51.520;6.764;2023-05-08T01:46:13;15.10;99.90
26503;DHT22;14177;51.520;6.764;2023-05-08T01:48:49;15.10;99.90
26503;DHT22;14177;51.520;6.764;2023-05-08T01:51:24;15.10;99.90
26503;DHT22;14177;51.520;6.764;2023-05-08T01:54:04;15.10;99.90
26503;DHT22;14177;51.520;6.764;2023-05-08T01:56:36;15.10;99.90
26503;DHT22;14177;51.520;6.764;2023-05-08T01:59:06;15.00;99.90
26503;DHT22;14177;51.520;6.764;2023-05-08T02:01:36;15.00;99.90
26503;DHT22;14177;51.520;6.764;2023-05-08T02:04:05;15.10;99.90
26503;DHT22;14177;51.520;6.764;2023-05-08T02:06:36;15.00;99.90
26503;DHT22;14177;51.520;6.764;2023-05-08T02:09:07;15.00;99.90
26503;DHT22;14177;51.520;6.764;2023-05-08T02:11:37;15.00;99.90
26503;DHT22;14177;51.520;6.764;2023-05-08T02:14:09;14.90;99.90
26503;DHT22;14177;51.520;6.764;2023-05-08T02:16:39;14.90;99.90
26503;DHT22;14177;51.520;6.764;2023-05-08T02:19:10;14.90;99.90
26503;DHT22;14177;51.520;6.764;2023-05-08T02:21:38;14.90;99.90
26503;DHT22;14177;51.520;6.764;2023-05-08T02:24:07;14.90;99.90
26503;DHT22;14177;51.520;6.764;2023-05-08T02:26:36;14.90;99.90
26503;DHT22;14177;51.520;6.764;2023-05-08T02:29:07;14.90;99.90
26503;DHT22;14177;51.520;6.764;2023-05-08T02:31:35;14.90;99.90
26503;DHT22;14177;51.520;6.764;2023-05-08T02:34:04;14.90;99.90
26503;DHT22;14177;51.520;6.764;2023-05-08T02:36:34;14.90;99.90
26503;DHT22;14177;51.520;6.764;2023-05-08T02:39:05;14.90;99.90
26503;DHT22;14177;51.520;6.764;2023-05-08T02:41:34;14.90;99.90
26503;DHT22;14177;51.520;6.764;2023-05-08T02:44:04;14.80;99.90
26503;DHT22;14177;51.520;6.764;2023-05-08T02:52:12;14.70;99.90
26503;DHT22;14177;51.520;6.764;2023-05-08T02:54:50;14.70;99.90
26503;DHT22;14177;51.520;6.764;2023-05-08T03:00:17;14.70;99.90
26503;DHT22;14177;51.520;6.764;2023-05-08T03:02:58;14.70;99.90
26503;DHT22;14177;51.520;6.764;2023-05-08T03:05:33;14.60;99.90
26503;DHT22;14177;51.520;6.764;2023-05-08T03:08:06;14.60;99.90
26503;DHT22;14177;51.520;6.764;2023-05-08T03:10:42;14.60;99.90
26503;DHT22;14177;51.520;6.764;2023-05-08T03:13:13;14.60;99.90
26503;DHT22;14177;51.520;6.764;2023-05-08T03:15:51;14.60;99.90
26503;DHT22;14177;51.520;6.764;2023-05-08T03:18:29;14.60;99.90
26503;DHT22;14177;51.520;6.764;2023-05-08T03:21:03;14.60;99.90
26503;DHT22;14177;51.520;6.764;2023-05-08T03:23:33;14.50;99.90
26503;DHT22;14177;51.520;6.764;2023-05-08T03:26:02;14.50;99.90
26503;DHT22;14177;51.520;6.764;2023-05-08T03:28:31;14.50;99.90
26503;DHT22;14177;51.520;6.764;2023-05-08T03:30:59;14.50;99.90
26503;DHT22;14177;51.520;6.764;2023-05-08T03:33:28;14.50;99.90
26503;DHT22;14177;51.520;6.764;2023-05-08T03:35:57;14.50;99.90
26503;DHT22;14177;51.520;6.764;2023-05-08T03:38:25;14.50;99.90
26503;DHT22;14177;51.520;6.764;2023-05-08T03:40:52;14.40;99.90
26503;DHT22;14177;51.520;6.764;2023-05-08T03:43:20;14.40;99.90
26503;DHT22;14177;51.520;6.764;2023-05-08T03:45:49;14.40;99.90
26503;DHT22;14177;51.520;6.764;2023-05-08T03:48:17;14.40;99.90
26503;DHT22;14177;51.520;6.764;2023-05-08T03:50:46;14.40;99.90
26503;DHT22;14177;51.520;6.764;2023-05-08T03:53:13;14.40;99.90
26503;DHT22;14177;51.520;6.764;2023-05-08T03:55:41;14.40;99.90
26503;DHT22;14177;51.520;6.764;2023-05-08T03:59:31;14.40;99.90
26503;DHT22;14177;51.520;6.764;2023-05-08T04:01:38;14.40;99.90
26503;DHT22;14177;51.520;6.764;2023-05-08T04:04:24;14.40;99.90
26503;DHT22;14177;51.520;6.764;2023-05-08T04:10:14;14.40;99.90
26503;DHT22;14177;51.520;6.764;2023-05-08T04:13:06;14.30;99.90
26503;DHT22;14177;51.520;6.764;2023-05-08T04:18:43;14.30;99.90
26503;DHT22;14177;51.520;6.764;2023-05-08T04:21:18;14.30;99.90
26503;DHT22;14177;51.520;6.764;2023-05-08T04:23:50;14.30;99.90
26503;DHT22;14177;51.520;6.764;2023-05-08T04:26:19;14.30;99.90
26503;DHT22;14177;51.520;6.764;2023-05-08T04:28:47;14.30;99.90
26503;DHT22;14177;51.520;6.764;2023-05-08T04:31:16;14.30;99.90
26503;DHT22;14177;51.520;6.764;2023-05-08T04:33:45;14.20;99.90
26503;DHT22;14177;51.520;6.764;2023-05-08T04:36:13;14.20;99.90
26503;DHT22;14177;51.520;6.764;2023-05-08T04:38:42;14.20;99.90
26503;DHT22;14177;51.520;6.764;2023-05-08T04:41:10;14.20;99.90
26503;DHT22;14177;51.520;6.764;2023-05-08T04:43:37;14.20;99.90
26503;DHT22;14177;51.520;6.764;2023-05-08T04:46:06;14.30;99.90
26503;DHT22;14177;51.520;6.764;2023-05-08T04:48:33;14.30;99.90
26503;DHT22;14177;51.520;6.764;2023-05-08T04:51:01;14.30;99.90
26503;DHT22;14177;51.520;6.764;2023-05-08T04:53:27;14.30;99.90
26503;DHT22;14177;51.520;6.764;2023-05-08T04:55:54;14.40;99.90
26503;DHT22;14177;51.520;6.764;2023-05-08T04:58:23;14.30;99.90
26503;DHT22;14177;51.520;6.764;2023-05-08T05:00:50;14.40;99.90
26503;DHT22;14177;51.520;6.764;2023-05-08T05:03:18;14.40;99.90
26503;DHT22;14177;51.520;6.764;2023-05-08T05:05:45;14.40;99.90
26503;DHT22;14177;51.520;6.764;2023-05-08T05:08:12;14.50;99.90
26503;DHT22;14177;51.520;6.764;2023-05-08T05:10:39;14.50;99.90
26503;DHT22;14177;51.520;6.764;2023-05-08T05:13:06;14.60;99.90
26503;DHT22;14177;51.520;6.764;2023-05-08T05:15:33;14.60;99.90
26503;DHT22;14177;51.520;6.764;2023-05-08T05:18:00;14.70;99.90
26503;DHT22;14177;51.520;6.764;2023-05-08T05:20:28;14.70;99.90
26503;DHT22;14177;51.520;6.764;2023-05-08T05:22:55;14.80;99.90
26503;DHT22;14177;51.520;6.764;2023-05-08T05:25:24;14.80;99.90
26503;DHT22;14177;51.520;6.764;2023-05-08T05:27:51;14.80;99.90
26503;DHT22;14177;51.520;6.764;2023-05-08T05:30:18;14.90;99.90
26503;DHT22;14177;51.520;6.764;2023-05-08T05:32:45;14.90;99.90
26503;DHT22;14177;51.520;6.764;2023-05-08T05:35:12;15.00;99.90
26503;DHT22;14177;51.520;6.764;2023-05-08T05:37:40;15.00;99.90
26503;DHT22;14177;51.520;6.764;2023-05-08T05:40:08;15.10;99.90
26503;DHT22;14177;51.520;6.764;2023-05-08T05:42:36;15.20;99.90
26503;DHT22;14177;51.520;6.764;2023-05-08T05:45:03;15.20;99.90
26503;DHT22;14177;51.520;6.764;2023-05-08T05:47:31;15.30;99.90
26503;DHT22;14177;51.520;6.764;2023-05-08T05:49:59;15.40;99.90
26503;DHT22;14177;51.520;6.764;2023-05-08T05:52:29;15.50;99.90
26503;DHT22;14177;51.520;6.764;2023-05-08T05:54:56;15.50;99.90
26503;DHT22;14177;51.520;6.764;2023-05-08T05:57:23;15.60;99.90
26503;DHT22;14177;51.520;6.764;2023-05-08T05:59:50;15.60;99.90
26503;DHT22;14177;51.520;6.764;2023-05-08T06:02:20;15.70;99.90
26503;DHT22;14177;51.520;6.764;2023-05-08T06:04:47;15.80;99.90
26503;DHT22;14177;51.520;6.764;2023-05-08T06:07:15;15.90;99.90
26503;DHT22;14177;51.520;6.764;2023-05-08T06:09:42;16.10;99.90
26503;DHT22;14177;51.520;6.764;2023-05-08T06:12:09;16.20;99.90
26503;DHT22;14177;51.520;6.764;2023-05-08T06:14:37;16.20;99.90
26503;DHT22;14177;51.520;6.764;2023-05-08T06:17:04;16.30;99.90
26503;DHT22;14177;51.520;6.764;2023-05-08T06:19:32;16.40;99.90
26503;DHT22;14177;51.520;6.764;2023-05-08T06:21:59;16.50;99.90
26503;DHT22;14177;51.520;6.764;2023-05-08T06:24:26;16.60;99.90
26503;DHT22;14177;51.520;6.764;2023-05-08T06:26:53;16.70;99.90
26503;DHT22;14177;51.520;6.764;2023-05-08T06:29:20;16.80;99.90
26503;DHT22;14177;51.520;6.764;2023-05-08T06:31:47;16.70;99.90
26503;DHT22;14177;51.520;6.764;2023-05-08T06:34:14;16.70;99.90
26503;DHT22;14177;51.520;6.764;2023-05-08T06:36:41;16.70;99.90
26503;DHT22;14177;51.520;6.764;2023-05-08T06:39:08;16.70;99.90
26503;DHT22;14177;51.520;6.764;2023-05-08T06:41:35;16.70;99.90
26503;DHT22;14177;51.520;6.764;2023-05-08T06:44:02;16.80;99.90
26503;DHT22;14177;51.520;6.764;2023-05-08T06:46:31;16.90;99.90
26503;DHT22;14177;51.520;6.764;2023-05-08T06:48:59;16.90;99.90
26503;DHT22;14177;51.520;6.764;2023-05-08T06:51:26;17.00;99.90
26503;DHT22;14177;51.520;6.764;2023-05-08T06:53:53;17.10;99.90
26503;DHT22;14177;51.520;6.764;2023-05-08T06:56:20;17.10;99.90
26503;DHT22;14177;51.520;6.764;2023-05-08T06:58:48;17.10;99.90
26503;DHT22;14177;51.520;6.764;2023-05-08T07:01:33;17.20;99.90
26503;DHT22;14177;51.520;6.764;2023-05-08T07:04:00;17.30;99.90
26503;DHT22;14177;51.520;6.764;2023-05-08T07:06:27;17.30;99.90
26503;DHT22;14177;51.520;6.764;2023-05-08T07:08:54;17.40;99.90
26503;DHT22;14177;51.520;6.764;2023-05-08T07:11:21;17.40;99.90
26503;DHT22;14177;51.520;6.764;2023-05-08T07:13:48;17.60;99.90
26503;DHT22;14177;51.520;6.764;2023-05-08T07:16:15;17.60;99.90
26503;DHT22;14177;51.520;6.764;2023-05-08T07:18:42;17.70;99.90
26503;DHT22;14177;51.520;6.764;2023-05-08T07:21:10;17.80;99.90
26503;DHT22;14177;51.520;6.764;2023-05-08T07:23:37;17.80;99.90
26503;DHT22;14177;51.520;6.764;2023-05-08T07:26:04;18.00;99.90
26503;DHT22;14177;51.520;6.764;2023-05-08T07:28:30;18.10;99.90
26503;DHT22;14177;51.520;6.764;2023-05-08T07:30:57;18.20;99.90
26503;DHT22;14177;51.520;6.764;2023-05-08T07:33:24;18.50;99.90
26503;DHT22;14177;51.520;6.764;2023-05-08T07:35:51;18.60;99.90
26503;DHT22;14177;51.520;6.764;2023-05-08T07:38:18;18.70;99.90
26503;DHT22;14177;51.520;6.764;2023-05-08T07:40:45;18.80;99.90
26503;DHT22;14177;51.520;6.764;2023-05-08T07:43:12;18.80;99.90
26503;DHT22;14177;51.520;6.764;2023-05-08T07:45:40;18.80;99.90
26503;DHT22;14177;51.520;6.764;2023-05-08T07:48:07;18.70;99.90
26503;DHT22;14177;51.520;6.764;2023-05-08T07:50:34;18.70;99.90
26503;DHT22;14177;51.520;6.764;2023-05-08T07:53:02;18.60;99.90
26503;DHT22;14177;51.520;6.764;2023-05-08T07:55:29;18.80;99.90
26503;DHT22;14177;51.520;6.764;2023-05-08T07:57:55;18.90;99.90
26503;DHT22;14177;51.520;6.764;2023-05-08T08:00:22;19.00;99.90
26503;DHT22;14177;51.520;6.764;2023-05-08T08:02:49;19.20;99.90
26503;DHT22;14177;51.520;6.764;2023-05-08T08:05:17;19.40;99.90
26503;DHT22;14177;51.520;6.764;2023-05-08T08:07:43;19.70;99.90
26503;DHT22;14177;51.520;6.764;2023-05-08T08:10:10;19.90;99.90
26503;DHT22;14177;51.520;6.764;2023-05-08T08:12:38;20.20;99.90
26503;DHT22;14177;51.520;6.764;2023-05-08T08:15:05;20.40;99.90
26503;DHT22;14177;51.520;6.764;2023-05-08T08:17:33;20.50;99.90
26503;DHT22;14177;51.520;6.764;2023-05-08T08:20:00;20.70;99.90
26503;DHT22;14177;51.520;6.764;2023-05-08T08:22:27;20.90;99.90
26503;DHT22;14177;51.520;6.764;2023-05-08T08:24:54;21.10;99.90
26503;DHT22;14177;51.520;6.764;2023-05-08T08:27:22;21.20;99.90
26503;DHT22;14177;51.520;6.764;2023-05-08T08:29:49;21.40;99.90
26503;DHT22;14177;51.520;6.764;2023-05-08T08:32:30;21.40;99.90
26503;DHT22;14177;51.520;6.764;2023-05-08T08:34:57;21.30;99.90
26503;DHT22;14177;51.520;6.764;2023-05-08T08:37:24;21.30;99.90
26503;DHT22;14177;51.520;6.764;2023-05-08T08:39:52;21.20;99.90
26503;DHT22;14177;51.520;6.764;2023-05-08T08:42:19;21.40;99.90
26503;DHT22;14177;51.520;6.764;2023-05-08T08:44:46;21.50;99.90
26503;DHT22;14177;51.520;6.764;2023-05-08T08:47:15;21.50;99.90
26503;DHT22;14177;51.520;6.764;2023-05-08T08:49:47;21.50;99.90
26503;DHT22;14177;51.520;6.764;2023-05-08T08:55:22;21.80;99.90
26503;DHT22;14177;51.520;6.764;2023-05-08T08:58:11;21.90;99.90
26503;DHT22;14177;51.520;6.764;2023-05-08T09:00:51;22.00;99.90
26503;DHT22;14177;51.520;6.764;2023-05-08T09:03:20;22.10;99.90
26503;DHT22;14177;51.520;6.764;2023-05-08T09:05:48;22.00;99.90
26503;DHT22;14177;51.520;6.764;2023-05-08T09:08:17;21.90;99.90
26503;DHT22;14177;51.520;6.764;2023-05-08T09:10:45;21.90;99.90
26503;DHT22;14177;51.520;6.764;2023-05-08T09:13:12;21.70;99.90
26503;DHT22;14177;51.520;6.764;2023-05-08T09:15:39;21.70;99.90
26503;DHT22;14177;51.520;6.764;2023-05-08T09:18:06;21.50;99.90
26503;DHT22;14177;51.520;6.764;2023-05-08T09:20:33;21.50;99.90
26503;DHT22;14177;51.520;6.764;2023-05-08T09:23:01;21.40;99.90
26503;DHT22;14177;51.520;6.764;2023-05-08T09:25:44;21.20;99.90
26503;DHT22;14177;51.520;6.764;2023-05-08T09:28:19;21.10;99.90
26503;DHT22;14177;51.520;6.764;2023-05-08T09:30:58;21.20;99.90
26503;DHT22;14177;51.520;6.764;2023-05-08T09:33:27;21.20;99.90
26503;DHT22;14177;51.520;6.764;2023-05-08T09:35:55;21.20;99.90
26503;DHT22;14177;51.520;6.764;2023-05-08T09:38:39;21.20;99.90
26503;DHT22;14177;51.520;6.764;2023-05-08T09:41:15;21.20;99.90
26503;DHT22;14177;51.520;6.764;2023-05-08T09:43:43;21.20;99.90
26503;DHT22;14177;51.520;6.764;2023-05-08T09:46:25;21.10;99.90
26503;DHT22;14177;51.520;6.764;2023-05-08T09:48:55;21.20;99.90
26503;DHT22;14177;51.520;6.764;2023-05-08T09:51:25;21.30;99.90
26503;DHT22;14177;51.520;6.764;2023-05-08T09:53:55;21.20;99.90
26503;DHT22;14177;51.520;6.764;2023-05-08T09:59:02;21.10;99.90
26503;DHT22;14177;51.520;6.764;2023-05-08T10:01:35;21.10;99.90
26503;DHT22;14177;51.520;6.764;2023-05-08T10:04:02;21.10;99.90
26503;DHT22;14177;51.520;6.764;2023-05-08T10:06:31;21.20;99.90
26503;DHT22;14177;51.520;6.764;2023-05-08T10:09:12;21.50;99.90
26503;DHT22;14177;51.520;6.764;2023-05-08T10:11:47;21.60;99.90
26503;DHT22;14177;51.520;6.764;2023-05-08T10:14:18;21.60;99.90
26503;DHT22;14177;51.520;6.764;2023-05-08T10:16:48;21.50;99.90
26503;DHT22;14177;51.520;6.764;2023-05-08T10:19:24;21.40;99.90
26503;DHT22;14177;51.520;6.764;2023-05-08T10:21:54;21.30;99.90
26503;DHT22;14177;51.520;6.764;2023-05-08T10:24:31;21.40;99.90
26503;DHT22;14177;51.520;6.764;2023-05-08T10:27:13;21.60;99.90
26503;DHT22;14177;51.520;6.764;2023-05-08T10:29:51;21.80;99.90
26503;DHT22;14177;51.520;6.764;2023-05-08T10:32:21;22.00;99.90
26503;DHT22;14177;51.520;6.764;2023-05-08T10:34:57;22.30;99.90
26503;DHT22;14177;51.520;6.764;2023-05-08T10:37:28;22.80;99.90
26503;DHT22;14177;51.520;6.764;2023-05-08T10:39:56;23.60;99.90
26503;DHT22;14177;51.520;6.764;2023-05-08T10:42:24;24.20;99.60
26503;DHT22;14177;51.520;6.764;2023-05-08T10:44:53;24.70;94.90
26503;DHT22;14177;51.520;6.764;2023-05-08T10:52:53;25.00;91.10
26503;DHT22;14177;51.520;6.764;2023-05-08T10:55:30;24.70;92.80
26503;DHT22;14177;51.520;6.764;2023-05-08T11:03:26;25.00;92.00
26503;DHT22;14177;51.520;6.764;2023-05-08T11:06:00;24.90;93.00
26503;DHT22;14177;51.520;6.764;2023-05-08T11:08:29;25.30;91.50
26503;DHT22;14177;51.520;6.764;2023-05-08T11:13:32;25.50;90.80
26503;DHT22;14177;51.520;6.764;2023-05-08T11:15:59;25.40;88.60
26503;DHT22;14177;51.520;6.764;2023-05-08T11:18:27;25.30;85.20
26503;DHT22;14177;51.520;6.764;2023-05-08T11:21:19;25.00;87.50
26503;DHT22;14177;51.520;6.764;2023-05-08T11:23:56;24.70;91.50
26503;DHT22;14177;51.520;6.764;2023-05-08T11:26:37;24.90;91.60
26503;DHT22;14177;51.520;6.764;2023-05-08T11:29:17;25.20;93.20
26503;DHT22;14177;51.520;6.764;2023-05-08T11:31:51;25.70;88.40
26503;DHT22;14177;51.520;6.764;2023-05-08T11:37:20;25.80;86.60
26503;DHT22;14177;51.520;6.764;2023-05-08T11:39:49;26.10;85.20
26503;DHT22;14177;51.520;6.764;2023-05-08T11:45:07;26.10;81.30
26503;DHT22;14177;51.520;6.764;2023-05-08T11:47:42;26.00;79.00
26503;DHT22;14177;51.520;6.764;2023-05-08T11:50:12;26.20;81.30
26503;DHT22;14177;51.520;6.764;2023-05-08T11:52:40;26.30;77.10
26503;DHT22;14177;51.520;6.764;2023-05-08T11:55:10;26.00;81.10
26503;DHT22;14177;51.520;6.764;2023-05-08T11:57:40;25.80;79.00
26503;DHT22;14177;51.520;6.764;2023-05-08T12:00:08;25.80;79.10
26503;DHT22;14177;51.520;6.764;2023-05-08T12:02:41;25.70;78.20
26503;DHT22;14177;51.520;6.764;2023-05-08T12:05:11;25.60;78.60
26503;DHT22;14177;51.520;6.764;2023-05-08T12:07:45;25.60;79.10
26503;DHT22;14177;51.520;6.764;2023-05-08T12:10:13;25.50;78.40
26503;DHT22;14177;51.520;6.764;2023-05-08T12:12:43;25.40;80.60
26503;DHT22;14177;51.520;6.764;2023-05-08T12:15:12;25.30;80.70
26503;DHT22;14177;51.520;6.764;2023-05-08T12:17:41;25.30;75.90
26503;DHT22;14177;51.520;6.764;2023-05-08T12:20:15;25.10;81.10
26503;DHT22;14177;51.520;6.764;2023-05-08T12:22:51;24.70;79.60
26503;DHT22;14177;51.520;6.764;2023-05-08T12:25:19;24.50;80.20
26503;DHT22;14177;51.520;6.764;2023-05-08T12:27:46;24.10;85.80
26503;DHT22;14177;51.520;6.764;2023-05-08T12:30:13;24.00;90.80
26503;DHT22;14177;51.520;6.764;2023-05-08T12:32:42;24.00;91.10
26503;DHT22;14177;51.520;6.764;2023-05-08T12:35:11;24.00;90.20
26503;DHT22;14177;51.520;6.764;2023-05-08T12:37:39;24.10;89.80
26503;DHT22;14177;51.520;6.764;2023-05-08T12:40:06;24.00;86.90
26503;DHT22;14177;51.520;6.764;2023-05-08T12:42:48;24.00;81.70
26503;DHT22;14177;51.520;6.764;2023-05-08T12:45:21;24.00;84.40
26503;DHT22;14177;51.520;6.764;2023-05-08T12:47:57;24.10;86.50
26503;DHT22;14177;51.520;6.764;2023-05-08T12:50:33;24.40;87.30
26503;DHT22;14177;51.520;6.764;2023-05-08T12:53:09;24.90;82.70
26503;DHT22;14177;51.520;6.764;2023-05-08T12:55:45;25.00;81.70
26503;DHT22;14177;51.520;6.764;2023-05-08T12:58:23;25.00;84.10
26503;DHT22;14177;51.520;6.764;2023-05-08T13:00:52;25.00;85.60
26503;DHT22;14177;51.520;6.764;2023-05-08T13:03:29;25.10;85.40
26503;DHT22;14177;51.520;6.764;2023-05-08T13:05:57;25.30;85.60
26503;DHT22;14177;51.520;6.764;2023-05-08T13:08:37;25.30;84.00
26503;DHT22;14177;51.520;6.764;2023-05-08T13:11:05;25.30;84.30
26503;DHT22;14177;51.520;6.764;2023-05-08T13:13:34;25.20;86.60
26503;DHT22;14177;51.520;6.764;2023-05-08T13:16:03;25.20;87.30
26503;DHT22;14177;51.520;6.764;2023-05-08T13:18:32;25.40;87.40
26503;DHT22;14177;51.520;6.764;2023-05-08T13:20:59;25.80;89.00
26503;DHT22;14177;51.520;6.764;2023-05-08T13:23:28;26.20;85.80
26503;DHT22;14177;51.520;6.764;2023-05-08T13:25:55;26.50;84.20
26503;DHT22;14177;51.520;6.764;2023-05-08T13:28:22;26.60;80.30
26503;DHT22;14177;51.520;6.764;2023-05-08T13:30:49;26.50;80.60
26503;DHT22;14177;51.520;6.764;2023-05-08T13:33:16;26.50;80.60
26503;DHT22;14177;51.520;6.764;2023-05-08T13:35:43;26.60;81.80
26503;DHT22;14177;51.520;6.764;2023-05-08T13:38:10;26.70;78.20
26503;DHT22;14177;51.520;6.764;2023-05-08T13:40:37;26.60;78.60
26503;DHT22;14177;51.520;6.764;2023-05-08T13:43:04;26.60;82.40
26503;DHT22;14177;51.520;6.764;2023-05-08T13:45:31;26.90;78.30
26503;DHT22;14177;51.520;6.764;2023-05-08T13:47:58;27.10;79.50
26503;DHT22;14177;51.520;6.764;2023-05-08T13:50:26;27.30;72.50
26503;DHT22;14177;51.520;6.764;2023-05-08T13:52:53;27.10;74.80
26503;DHT22;14177;51.520;6.764;2023-05-08T13:55:21;26.60;72.30
26503;DHT22;14177;51.520;6.764;2023-05-08T13:57:49;26.30;73.90
26503;DHT22;14177;51.520;6.764;2023-05-08T14:00:17;26.30;76.20
26503;DHT22;14177;51.520;6.764;2023-05-08T14:02:44;26.30;75.70
26503;DHT22;14177;51.520;6.764;2023-05-08T14:05:11;26.10;75.90
26503;DHT22;14177;51.520;6.764;2023-05-08T14:07:39;26.10;73.60
26503;DHT22;14177;51.520;6.764;2023-05-08T14:10:06;26.10;74.80
26503;DHT22;14177;51.520;6.764;2023-05-08T14:12:33;26.40;74.20
26503;DHT22;14177;51.520;6.764;2023-05-08T14:15:04;26.60;72.60
26503;DHT22;14177;51.520;6.764;2023-05-08T14:17:31;26.80;73.90
26503;DHT22;14177;51.520;6.764;2023-05-08T14:19:59;27.10;73.60
26503;DHT22;14177;51.520;6.764;2023-05-08T14:22:26;27.40;72.00
26503;DHT22;14177;51.520;6.764;2023-05-08T14:24:53;27.60;69.20
26503;DHT22;14177;51.520;6.764;2023-05-08T14:27:20;27.60;68.20
26503;DHT22;14177;51.520;6.764;2023-05-08T14:29:47;27.30;68.10
26503;DHT22;14177;51.520;6.764;2023-05-08T14:32:14;27.10;67.90
26503;DHT22;14177;51.520;6.764;2023-05-08T14:34:41;27.10;69.20
26503;DHT22;14177;51.520;6.764;2023-05-08T14:37:08;27.10;68.50
26503;DHT22;14177;51.520;6.764;2023-05-08T14:39:35;26.80;68.00
26503;DHT22;14177;51.520;6.764;2023-05-08T14:42:02;26.50;68.90
26503;DHT22;14177;51.520;6.764;2023-05-08T14:44:32;26.20;72.00
26503;DHT22;14177;51.520;6.764;2023-05-08T14:46:59;26.10;73.00
26503;DHT22;14177;51.520;6.764;2023-05-08T14:49:26;26.30;74.20
26503;DHT22;14177;51.520;6.764;2023-05-08T14:52:03;26.50;73.20
26503;DHT22;14177;51.520;6.764;2023-05-08T14:54:31;26.50;71.20
26503;DHT22;14177;51.520;6.764;2023-05-08T14:56:58;26.50;71.90
26503;DHT22;14177;51.520;6.764;2023-05-08T14:59:25;26.50;71.00
26503;DHT22;14177;51.520;6.764;2023-05-08T15:01:52;26.40;68.90
26503;DHT22;14177;51.520;6.764;2023-05-08T15:04:19;26.20;70.70
26503;DHT22;14177;51.520;6.764;2023-05-08T15:06:46;26.00;70.80
26503;DHT22;14177;51.520;6.764;2023-05-08T15:09:13;25.70;72.40
26503;DHT22;14177;51.520;6.764;2023-05-08T15:11:42;25.50;72.70
26503;DHT22;14177;51.520;6.764;2023-05-08T15:14:09;25.30;74.50
26503;DHT22;14177;51.520;6.764;2023-05-08T15:16:36;25.10;74.80
26503;DHT22;14177;51.520;6.764;2023-05-08T15:19:03;24.90;75.50
26503;DHT22;14177;51.520;6.764;2023-05-08T15:21:30;24.70;78.50
26503;DHT22;14177;51.520;6.764;2023-05-08T15:23:57;24.50;79.00
26503;DHT22;14177;51.520;6.764;2023-05-08T15:26:24;24.40;82.10
26503;DHT22;14177;51.520;6.764;2023-05-08T15:28:51;24.40;83.90
26503;DHT22;14177;51.520;6.764;2023-05-08T15:31:18;24.30;84.20
26503;DHT22;14177;51.520;6.764;2023-05-08T15:33:45;24.20;85.30
26503;DHT22;14177;51.520;6.764;2023-05-08T15:36:13;24.20;86.90
26503;DHT22;14177;51.520;6.764;2023-05-08T15:38:40;24.10;87.60
26503;DHT22;14177;51.520;6.764;2023-05-08T15:41:08;24.00;89.20
26503;DHT22;14177;51.520;6.764;2023-05-08T15:43:41;23.90;90.50
26503;DHT22;14177;51.520;6.764;2023-05-08T15:46:10;23.90;91.20
26503;DHT22;14177;51.520;6.764;2023-05-08T15:48:38;23.70;92.10
26503;DHT22;14177;51.520;6.764;2023-05-08T15:51:05;23.60;91.90
26503;DHT22;14177;51.520;6.764;2023-05-08T15:53:32;23.40;91.90
26503;DHT22;14177;51.520;6.764;2023-05-08T15:56:00;23.30;92.80
26503;DHT22;14177;51.520;6.764;2023-05-08T15:58:27;23.20;92.20
26503;DHT22;14177;51.520;6.764;2023-05-08T16:00:54;23.10;92.80
26503;DHT22;14177;51.520;6.764;2023-05-08T16:03:22;23.00;92.40
26503;DHT22;14177;51.520;6.764;2023-05-08T16:05:50;23.00;92.40
26503;DHT22;14177;51.520;6.764;2023-05-08T16:08:17;22.90;92.10
26503;DHT22;14177;51.520;6.764;2023-05-08T16:10:43;22.90;91.80
26503;DHT22;14177;51.520;6.764;2023-05-08T16:13:10;22.70;91.80
26503;DHT22;14177;51.520;6.764;2023-05-08T16:15:37;22.70;91.50
26503;DHT22;14177;51.520;6.764;2023-05-08T16:18:05;22.70;91.50
26503;DHT22;14177;51.520;6.764;2023-05-08T16:20:32;22.70;91.90
26503;DHT22;14177;51.520;6.764;2023-05-08T16:23:02;22.60;91.70
26503;DHT22;14177;51.520;6.764;2023-05-08T16:25:28;22.50;91.80
26503;DHT22;14177;51.520;6.764;2023-05-08T16:27:55;22.50;92.30
26503;DHT22;14177;51.520;6.764;2023-05-08T16:30:22;22.50;92.50
26503;DHT22;14177;51.520;6.764;2023-05-08T16:32:52;22.50;92.40
26503;DHT22;14177;51.520;6.764;2023-05-08T16:35:19;22.50;92.70
26503;DHT22;14177;51.520;6.764;2023-05-08T16:37:45;22.50;93.10
26503;DHT22;14177;51.520;6.764;2023-05-08T16:40:13;22.50;93.40
26503;DHT22;14177;51.520;6.764;2023-05-08T16:42:40;22.40;93.80
26503;DHT22;14177;51.520;6.764;2023-05-08T16:45:07;22.40;93.90
26503;DHT22;14177;51.520;6.764;2023-05-08T16:47:34;22.40;94.40
26503;DHT22;14177;51.520;6.764;2023-05-08T16:50:03;22.40;94.60